createdAt,value
2023-01-11T00:01:53.052Z,55.36
2023-01-11T00:04:31.423Z,55.38
2023-01-11T00:07:00.467Z,55.88
2023-01-11T00:09:33.517Z,56.00
2023-01-11T00:12:02.632Z,56.22
2023-01-11T00:14:34.418Z,56.56
2023-01-11T00:17:07.851Z,57.48
2023-01-11T00:19:39.750Z,56.79
2023-01-11T00:22:10.427Z,57.34
2023-01-11T00:24:41.332Z,56.96
2023-01-11T00:27:13.023Z,57.68
2023-01-11T00:29:42.585Z,58.54
2023-01-11T00:32:12.147Z,58.84
2023-01-11T00:34:45.556Z,59.23
2023-01-11T00:37:14.731Z,58.84
2023-01-11T00:39:53.663Z,59.01
2023-01-11T00:42:43.907Z,59.77
2023-01-11T00:45:32.929Z,60.36
2023-01-11T00:48:12.301Z,61.37
2023-01-11T00:50:49.736Z,60.75
2023-01-11T00:53:20.928Z,61.23
2023-01-11T00:55:56.512Z,61.95
2023-01-11T00:58:35.167Z,61.85
2023-01-11T01:01:10.322Z,61.18
2023-01-11T01:03:38.997Z,61.52
2023-01-11T01:06:12.045Z,60.92
2023-01-11T01:08:42.722Z,60.49
2023-01-11T01:11:13.473Z,60.62
2023-01-11T01:13:59.867Z,60.65
2023-01-11T01:16:28.656Z,62.14
2023-01-11T01:19:03.686Z,62.59
2023-01-11T01:21:34.179Z,63.13
2023-01-11T01:24:05.930Z,63.90
2023-01-11T01:26:36.412Z,64.59
2023-01-11T01:29:16.137Z,65.26
2023-01-11T01:31:50.503Z,65.43
2023-01-11T01:34:21.335Z,66.91
2023-01-11T01:36:49.572Z,67.61
2023-01-11T01:39:29.007Z,69.05
2023-01-11T01:42:06.822Z,69.12
2023-01-11T01:45:10.270Z,69.32
2023-01-11T01:47:46.955Z,69.52
2023-01-11T01:50:25.537Z,70.61
2023-01-11T01:53:15.268Z,71.62
2023-01-11T01:55:55.631Z,70.99
2023-01-11T01:58:29.746Z,70.84
2023-01-11T02:01:27.637Z,70.27
2023-01-11T02:04:01.520Z,71.51
2023-01-11T02:06:34.391Z,71.23
2023-01-11T02:09:06.222Z,71.97
2023-01-11T02:11:43.388Z,70.58
2023-01-11T02:14:22.934Z,70.97
2023-01-11T02:16:54.864Z,71.33
2023-01-11T02:19:36.520Z,71.12
2023-01-11T02:22:41.285Z,71.73
2023-01-11T02:25:49.603Z,72.63
2023-01-11T02:28:27.294Z,70.95
2023-01-11T02:31:04.695Z,71.96
2023-01-11T02:33:42.371Z,71.87
2023-01-11T02:36:18.123Z,71.68
2023-01-11T02:38:54.751Z,71.46
2023-01-11T02:41:50.378Z,71.67
2023-01-11T02:44:49.304Z,71.47
2023-01-11T02:47:22.885Z,72.72
2023-01-11T02:50:00.035Z,72.73
2023-01-11T02:52:34.664Z,72.75
2023-01-11T02:55:05.390Z,72.04
2023-01-11T02:57:38.967Z,72.66
2023-01-11T03:00:15.451Z,71.44
2023-01-11T03:02:44.789Z,72.86
2023-01-11T03:05:14.799Z,72.67
2023-01-11T03:07:58.329Z,71.97
2023-01-11T03:10:37.912Z,71.32
2023-01-11T03:13:14.792Z,71.77
2023-01-11T03:16:18.595Z,72.30
2023-01-11T03:18:55.567Z,72.22
2023-01-11T03:21:32.334Z,72.07
2023-01-11T03:24:09.072Z,72.71
2023-01-11T03:26:46.318Z,72.63
2023-01-11T03:29:29.595Z,73.29
2023-01-11T03:32:09.158Z,72.38
2023-01-11T03:34:48.410Z,73.16
2023-01-11T03:37:26.832Z,72.56
2023-01-11T03:40:03.835Z,72.36
2023-01-11T03:43:04.018Z,72.68
2023-01-11T03:45:37.830Z,73.51
2023-01-11T03:48:15.972Z,73.36
2023-01-11T03:50:53.674Z,73.89
2023-01-11T03:53:34.743Z,73.31
2023-01-11T03:56:07.191Z,74.10
2023-01-11T03:58:44.445Z,73.60
2023-01-11T04:01:15.003Z,71.67
2023-01-11T04:03:51.873Z,71.54
2023-01-11T04:06:22.842Z,71.81
2023-01-11T04:08:52.695Z,71.77
2023-01-11T04:11:30.503Z,71.57
2023-01-11T04:14:02.108Z,71.41
2023-01-11T04:16:34.083Z,70.95
2023-01-11T04:19:14.940Z,71.16
2023-01-11T04:21:49.851Z,72.35
2023-01-11T04:24:18.802Z,73.17
2023-01-11T04:26:50.624Z,72.96
2023-01-11T04:29:27.780Z,72.77
2023-01-11T04:31:56.788Z,73.39
2023-01-11T04:34:25.690Z,73.49
2023-01-11T04:37:01.237Z,74.48
2023-01-11T04:39:32.737Z,74.79
2023-01-11T04:42:18.993Z,75.67
2023-01-11T04:44:56.283Z,75.19
2023-01-11T04:47:33.558Z,74.54
2023-01-11T04:50:05.774Z,74.43
2023-01-11T04:52:41.784Z,75.02
2023-01-11T04:55:17.112Z,75.29
2023-01-11T04:57:54.372Z,74.91
2023-01-11T05:00:23.609Z,75.01
2023-01-11T05:02:54.541Z,75.26
2023-01-11T05:05:30.873Z,75.70
2023-01-11T05:08:08.648Z,75.49
2023-01-11T05:10:38.260Z,75.56
2023-01-11T05:13:08.780Z,75.86
2023-01-11T05:15:42.805Z,76.33
2023-01-11T05:18:12.078Z,76.39
2023-01-11T05:20:46.431Z,76.49
2023-01-11T05:23:18.900Z,78.20
2023-01-11T05:25:53.628Z,78.19
2023-01-11T05:28:24.363Z,78.54
2023-01-11T05:31:02.302Z,79.65
2023-01-11T05:33:30.869Z,79.44
2023-01-11T05:36:00.775Z,80.39
2023-01-11T05:38:31.557Z,80.41
2023-01-11T05:41:10.482Z,80.29
2023-01-11T05:44:01.207Z,80.91
2023-01-11T05:46:31.639Z,80.71
2023-01-11T05:49:01.641Z,80.51
2023-01-11T05:51:38.240Z,81.48
2023-01-11T05:54:12.900Z,81.36
2023-01-11T05:56:51.089Z,80.98
2023-01-11T05:59:19.953Z,81.90
2023-01-11T06:01:52.163Z,82.05
2023-01-11T06:04:35.060Z,82.19
2023-01-11T06:07:04.415Z,82.88
2023-01-11T06:09:36.627Z,82.70
2023-01-11T06:12:08.333Z,83.21
2023-01-11T06:14:39.406Z,82.65
2023-01-11T06:17:08.691Z,83.08
2023-01-11T06:19:39.780Z,84.10
2023-01-11T06:22:13.178Z,84.25
2023-01-11T06:24:46.591Z,84.54
2023-01-11T06:27:19.111Z,84.01
2023-01-11T06:29:50.323Z,84.08
2023-01-11T06:32:30.149Z,84.04
2023-01-11T06:35:01.897Z,83.66
2023-01-11T06:37:38.478Z,83.84
2023-01-11T06:40:12.280Z,84.61
2023-01-11T06:42:42.899Z,84.99
2023-01-11T06:45:13.016Z,84.60
2023-01-11T06:47:42.177Z,85.29
2023-01-11T06:50:14.936Z,85.38
2023-01-11T06:52:44.351Z,84.73
2023-01-11T06:55:29.410Z,84.62
2023-01-11T06:57:58.192Z,85.13
2023-01-11T07:00:27.896Z,84.57
2023-01-11T07:02:56.965Z,84.87
2023-01-11T07:05:27.837Z,85.79
2023-01-11T07:07:56.960Z,85.97
2023-01-11T07:10:31.329Z,85.33
2023-01-11T07:13:07.320Z,86.44
2023-01-11T07:15:39.101Z,86.43
2023-01-11T07:18:12.136Z,86.51
2023-01-11T07:20:44.381Z,85.94
2023-01-11T07:23:12.978Z,85.07
2023-01-11T07:26:09.048Z,85.90
2023-01-11T07:28:38.538Z,85.85
2023-01-11T07:31:07.450Z,85.24
2023-01-11T07:33:37.655Z,85.02
2023-01-11T07:36:09.094Z,84.88
2023-01-11T07:38:52.349Z,84.87
2023-01-11T07:41:44.349Z,85.34
2023-01-11T07:44:14.041Z,83.66
2023-01-11T07:46:43.064Z,83.21
2023-01-11T07:49:21.214Z,83.90
2023-01-11T07:51:52.094Z,84.23
2023-01-11T07:54:27.136Z,84.32
2023-01-11T07:57:08.580Z,83.78
2023-01-11T07:59:39.944Z,83.97
2023-01-11T08:02:14.195Z,83.97
2023-01-11T08:04:45.420Z,83.79
2023-01-11T08:07:14.622Z,82.95
2023-01-11T08:09:46.253Z,83.10
2023-01-11T08:12:37.053Z,83.40
2023-01-11T08:15:11.673Z,83.01
2023-01-11T08:17:41.265Z,81.93
2023-01-11T08:20:12.641Z,80.41
2023-01-11T08:22:41.735Z,80.33
2023-01-11T08:25:11.474Z,80.97
2023-01-11T08:27:48.029Z,80.44
2023-01-11T08:30:18.229Z,79.38
2023-01-11T08:32:55.937Z,78.84
2023-01-11T08:35:26.689Z,79.20
2023-01-11T08:37:56.341Z,79.57
2023-01-11T08:40:37.517Z,79.33
2023-01-11T08:43:14.409Z,79.92
2023-01-11T08:45:51.265Z,79.46
2023-01-11T08:48:21.136Z,79.19
2023-01-11T08:50:50.161Z,78.24
2023-01-11T08:53:22.194Z,77.99
2023-01-11T08:55:53.648Z,77.30
2023-01-11T08:58:27.491Z,77.20
2023-01-11T09:01:10.209Z,77.49
2023-01-11T09:03:42.020Z,77.78
2023-01-11T09:06:11.572Z,77.52
2023-01-11T09:08:43.887Z,76.67
2023-01-11T09:11:29.468Z,75.96
2023-01-11T09:14:21.707Z,74.91
2023-01-11T09:16:52.554Z,74.76
2023-01-11T09:19:24.670Z,74.19
2023-01-11T09:21:53.546Z,73.59
2023-01-11T09:24:32.220Z,74.32
2023-01-11T09:27:01.952Z,73.92
2023-01-11T09:29:34.386Z,73.82
2023-01-11T09:32:04.345Z,73.81
2023-01-11T09:34:35.077Z,73.81
2023-01-11T09:37:06.938Z,73.22
2023-01-11T09:39:46.305Z,71.96
2023-01-11T09:42:36.596Z,72.51
2023-01-11T09:45:18.869Z,72.95
2023-01-11T09:48:03.616Z,71.33
2023-01-11T09:50:45.156Z,70.90
2023-01-11T09:53:23.689Z,70.54
2023-01-11T09:55:58.445Z,71.03
2023-01-11T09:58:51.493Z,69.71
2023-01-11T10:01:34.499Z,70.75
2023-01-11T10:04:52.284Z,69.48
2023-01-11T10:14:05.335Z,67.99
2023-01-11T10:18:42.989Z,67.32
2023-01-11T10:19:57.636Z,67.21
2023-01-11T10:22:32.867Z,65.93
2023-01-11T10:25:11.589Z,66.25
2023-01-11T10:27:43.285Z,65.96
2023-01-11T10:30:41.823Z,66.25
2023-01-11T10:33:30.355Z,64.07
2023-01-11T10:36:37.509Z,64.53
2023-01-11T10:39:33.100Z,63.34
2023-01-11T10:42:10.468Z,63.67
2023-01-11T10:44:42.552Z,63.55
2023-01-11T10:47:17.493Z,63.67
2023-01-11T10:49:57.264Z,63.25
2023-01-11T10:52:35.189Z,63.92
2023-01-11T10:55:18.085Z,63.07
2023-01-11T10:58:04.876Z,63.21
2023-01-11T11:00:37.732Z,63.76
2023-01-11T11:06:27.359Z,63.16
2023-01-11T11:09:08.297Z,63.40
2023-01-11T11:11:47.163Z,63.34
2023-01-11T11:14:28.755Z,64.03
2023-01-11T11:17:05.553Z,63.31
2023-01-11T11:19:35.118Z,62.49
2023-01-11T11:22:21.659Z,62.14
2023-01-11T11:24:56.751Z,61.95
2023-01-11T11:27:27.968Z,61.74
2023-01-11T11:29:58.638Z,61.20
2023-01-11T11:32:36.756Z,61.34
2023-01-11T11:35:13.941Z,61.64
2023-01-11T11:37:59.853Z,60.76
2023-01-11T11:40:38.384Z,61.60
2023-01-11T11:43:23.138Z,60.92
2023-01-11T11:45:53.339Z,61.61
2023-01-11T11:48:34.577Z,61.86
2023-01-11T11:51:06.585Z,62.07
2023-01-11T11:53:43.788Z,62.31
2023-01-11T11:56:25.187Z,61.88
2023-01-11T11:58:57.482Z,61.88
2023-01-11T12:01:30.368Z,62.43
2023-01-11T12:04:02.909Z,62.51
2023-01-11T12:06:41.462Z,63.02
2023-01-11T12:09:32.720Z,63.25
2023-01-11T12:12:15.662Z,63.04
2023-01-11T12:14:48.393Z,62.14
2023-01-11T12:17:25.074Z,61.22
2023-01-11T12:19:53.403Z,60.34
2023-01-11T12:22:29.481Z,61.24
2023-01-11T12:25:24.388Z,61.08
2023-01-11T12:28:01.971Z,59.99
2023-01-11T12:30:36.323Z,59.73
2023-01-11T12:33:30.063Z,57.61
2023-01-11T12:36:06.097Z,56.90
2023-01-11T12:38:48.834Z,56.94
2023-01-11T12:41:50.682Z,57.00
2023-01-11T12:44:48.999Z,57.20
2023-01-11T12:47:59.944Z,57.22
2023-01-11T12:50:35.549Z,58.43
2023-01-11T12:53:22.264Z,58.20
2023-01-11T12:56:03.383Z,57.99
2023-01-11T12:58:41.752Z,58.11
2023-01-11T13:01:41.596Z,57.56
2023-01-11T13:04:47.171Z,57.99
2023-01-11T13:07:33.235Z,58.07
2023-01-11T13:10:22.910Z,58.94
2023-01-11T13:12:57.423Z,59.61
2023-01-11T13:15:51.525Z,59.23
2023-01-11T13:18:31.270Z,59.72
2023-01-11T13:21:08.942Z,60.03
2023-01-11T13:23:46.221Z,60.24
2023-01-11T13:26:24.013Z,61.02
2023-01-11T13:28:57.529Z,61.22
2023-01-11T13:31:37.535Z,61.52
2023-01-11T13:34:16.158Z,61.82
2023-01-11T13:36:58.446Z,62.67
2023-01-11T13:39:37.243Z,62.69
2023-01-11T13:42:14.932Z,63.00
2023-01-11T13:44:49.473Z,63.11
2023-01-11T13:47:24.899Z,63.73
2023-01-11T13:49:59.509Z,63.13
2023-01-11T13:52:42.440Z,63.08
2023-01-11T13:55:24.870Z,63.69
2023-01-11T13:57:59.125Z,64.29
2023-01-11T14:00:33.027Z,64.52
2023-01-11T14:03:12.684Z,64.38
2023-01-11T14:05:47.091Z,65.44
2023-01-11T14:08:35.287Z,65.59
2023-01-11T14:11:14.365Z,65.77
2023-01-11T14:14:26.470Z,66.12
2023-01-11T14:17:13.119Z,66.87
2023-01-11T14:19:49.777Z,67.33
2023-01-11T14:22:26.584Z,68.52
2023-01-11T14:24:59.994Z,68.44
2023-01-11T14:27:58.480Z,68.05
2023-01-11T14:30:42.103Z,69.14
2023-01-11T14:33:47.235Z,69.38
2023-01-11T14:36:49.794Z,69.51
2023-01-11T14:40:05.718Z,70.32
2023-01-11T14:43:06.172Z,69.62
2023-01-11T14:45:55.064Z,69.82
2023-01-11T14:48:36.201Z,69.58
2023-01-11T14:51:34.028Z,69.55
2023-01-11T14:54:17.850Z,70.30
2023-01-11T14:56:55.740Z,70.77
2023-01-11T14:59:37.131Z,69.99
2023-01-11T15:02:19.937Z,70.82
2023-01-11T15:05:08.612Z,70.94
2023-01-11T15:07:43.145Z,71.32
2023-01-11T15:11:08.602Z,70.85
2023-01-11T15:13:49.505Z,70.52
2023-01-11T15:16:38.894Z,71.30
2023-01-11T15:19:11.525Z,71.50
2023-01-11T15:21:42.700Z,71.07
2023-01-11T15:24:31.474Z,71.39
2023-01-11T15:27:02.659Z,71.24
2023-01-11T15:29:36.538Z,71.75
2023-01-11T15:32:21.295Z,71.33
2023-01-11T15:34:53.649Z,71.65
2023-01-11T15:37:44.144Z,71.96
2023-01-11T15:40:30.568Z,70.70
2023-01-11T15:43:48.535Z,70.76
2023-01-11T15:46:54.111Z,70.58
2023-01-11T15:49:59.898Z,69.83
2023-01-11T15:53:11.005Z,69.77
2023-01-11T15:56:29.135Z,68.92
2023-01-11T15:59:32.135Z,68.72
2023-01-11T16:02:31.196Z,67.92
2023-01-11T16:05:05.856Z,67.96
2023-01-11T16:07:40.992Z,68.62
2023-01-11T16:10:38.285Z,68.16
2023-01-11T16:13:28.693Z,68.60
2023-01-11T16:16:07.996Z,67.63
2023-01-11T16:18:42.208Z,67.90
2023-01-11T16:21:15.499Z,68.32
2023-01-11T16:23:53.607Z,68.25
2023-01-11T16:26:24.690Z,67.73
2023-01-11T16:28:57.900Z,68.21
2023-01-11T16:31:28.256Z,68.44
2023-01-11T16:34:12.591Z,67.86
2023-01-11T16:36:42.166Z,68.26
2023-01-11T16:39:25.078Z,68.30
2023-01-11T16:41:56.892Z,68.32
2023-01-11T16:44:33.349Z,69.07
2023-01-11T16:47:21.910Z,68.37
2023-01-11T16:50:21.322Z,68.79
2023-01-11T16:52:53.957Z,68.89
2023-01-11T16:55:30.566Z,68.98
2023-01-11T16:58:02.592Z,68.42
2023-01-11T17:00:41.093Z,68.71
2023-01-11T17:03:25.632Z,68.58
2023-01-11T17:06:25.646Z,68.63
2023-01-11T17:08:57.623Z,68.58
2023-01-11T17:11:33.628Z,68.36
2023-01-11T17:14:43.915Z,68.24
2023-01-11T17:17:21.201Z,68.85
2023-01-11T17:19:54.413Z,68.69
2023-01-11T17:22:35.791Z,68.81
2023-01-11T17:25:09.146Z,68.36
2023-01-11T17:27:41.312Z,68.22
2023-01-11T17:30:18.360Z,68.17
2023-01-11T17:32:50.211Z,68.33
2023-01-11T17:35:30.052Z,67.82
2023-01-11T17:38:04.617Z,67.75
2023-01-11T17:40:43.935Z,67.46
2023-01-11T17:43:36.094Z,67.70
2023-01-11T17:46:07.148Z,67.47
2023-01-11T17:48:39.384Z,66.56
2023-01-11T17:51:09.909Z,66.46
2023-01-11T17:53:47.775Z,65.80
2023-01-11T17:56:38.189Z,66.16
2023-01-11T17:59:21.176Z,66.03
2023-01-11T18:02:00.422Z,65.32
2023-01-11T18:04:29.500Z,65.70
2023-01-11T18:07:06.828Z,65.15
2023-01-11T18:09:48.413Z,65.94
2023-01-11T18:12:24.239Z,65.87
2023-01-11T18:15:02.335Z,65.93
2023-01-11T18:17:47.261Z,66.13
2023-01-11T18:20:36.166Z,66.19
2023-01-11T18:23:22.203Z,66.31
2023-01-11T18:26:34.555Z,65.81
2023-01-11T18:29:22.061Z,66.82
2023-01-11T18:31:52.689Z,66.63
2023-01-11T18:34:31.015Z,66.90
2023-01-11T18:37:02.806Z,67.42
2023-01-11T18:39:41.141Z,66.71
2023-01-11T18:42:17.730Z,67.06
2023-01-11T18:44:52.440Z,66.93
2023-01-11T18:47:23.522Z,67.05
2023-01-11T18:49:57.117Z,67.61
2023-01-11T18:52:31.145Z,67.81
2023-01-11T18:55:10.563Z,68.04
2023-01-11T18:57:50.517Z,67.45
2023-01-11T19:00:29.314Z,67.64
2023-01-11T19:03:00.953Z,68.48
2023-01-11T19:05:40.821Z,68.37
2023-01-11T19:08:14.844Z,68.69
2023-01-11T19:10:59.319Z,68.97
2023-01-11T19:13:34.256Z,68.85
2023-01-11T19:16:06.360Z,68.95
2023-01-11T19:18:47.480Z,69.23
2023-01-11T19:21:20.588Z,69.16
2023-01-11T19:23:54.524Z,69.36
2023-01-11T19:26:28.147Z,68.98
2023-01-11T19:29:05.950Z,68.62
2023-01-11T19:31:50.183Z,67.59
2023-01-11T19:34:21.180Z,68.03
2023-01-11T19:36:56.505Z,68.33
2023-01-11T19:39:38.763Z,68.89
2023-01-11T19:42:19.726Z,68.08
2023-01-11T19:45:05.316Z,69.13
2023-01-11T19:47:50.977Z,70.31
2023-01-11T19:50:21.868Z,71.76
2023-01-11T19:53:04.866Z,72.69
2023-01-11T19:55:38.241Z,74.00
2023-01-11T19:58:09.709Z,75.90
2023-01-11T20:00:55.703Z,78.25
2023-01-11T20:03:28.722Z,79.89
2023-01-11T20:06:22.038Z,81.84
2023-01-11T20:08:51.629Z,82.66
2023-01-11T20:11:22.930Z,83.34
2023-01-11T20:13:54.585Z,84.75
2023-01-11T20:16:38.234Z,85.25
2023-01-11T20:19:08.087Z,85.34
2023-01-11T20:21:42.468Z,85.67
2023-01-11T20:24:19.774Z,86.92
2023-01-11T20:26:52.683Z,88.29
2023-01-11T20:29:32.471Z,92.06
2023-01-11T20:32:27.711Z,94.03
2023-01-11T20:34:57.697Z,96.36
2023-01-11T20:37:34.756Z,99.14
2023-01-11T20:40:21.769Z,100.00
2023-01-11T20:42:53.635Z,100.00
2023-01-11T20:45:33.756Z,100.00
2023-01-11T20:48:04.724Z,100.00
2023-01-11T20:50:35.644Z,100.00
2023-01-11T20:53:06.883Z,100.00
2023-01-11T20:55:47.434Z,100.00
2023-01-11T20:58:18.955Z,100.00
2023-01-11T21:00:47.940Z,100.00
2023-01-11T21:03:23.477Z,100.00
2023-01-11T21:05:56.357Z,100.00
2023-01-11T21:08:27.112Z,100.00
2023-01-11T21:11:06.216Z,100.00
2023-01-11T21:13:45.117Z,100.00
2023-01-11T21:16:27.401Z,100.00
2023-01-11T21:19:04.196Z,100.00
2023-01-11T21:21:40.721Z,100.00
2023-01-11T21:24:11.539Z,100.00
2023-01-11T21:26:42.964Z,100.00
2023-01-11T21:29:14.592Z,100.00
2023-01-11T21:31:52.503Z,100.00
2023-01-11T21:34:34.848Z,100.00
2023-01-11T21:37:04.840Z,100.00
2023-01-11T21:39:36.919Z,100.00
2023-01-11T21:42:14.510Z,100.00
2023-01-11T21:44:48.190Z,100.00
2023-01-11T21:47:25.695Z,100.00
2023-01-11T21:50:03.540Z,100.00
2023-01-11T21:52:33.832Z,100.00
2023-01-11T21:55:11.464Z,100.00
2023-01-11T21:57:48.519Z,100.00
2023-01-11T22:00:22.580Z,100.00
2023-01-11T22:02:59.849Z,100.00
2023-01-11T22:05:32.333Z,100.00
2023-01-11T22:08:05.175Z,100.00
2023-01-11T22:10:33.689Z,100.00
2023-01-11T22:13:05.730Z,100.00
2023-01-11T22:15:41.496Z,100.00
2023-01-11T22:18:12.035Z,100.00
2023-01-11T22:20:48.290Z,100.00
2023-01-11T22:23:27.247Z,100.00
2023-01-11T22:25:56.587Z,100.00
2023-01-11T22:28:27.430Z,100.00
2023-01-11T22:30:56.720Z,100.00
2023-01-11T22:33:26.324Z,100.00
2023-01-11T22:35:57.099Z,100.00
2023-01-11T22:38:33.536Z,100.00
2023-01-11T22:41:02.844Z,100.00
2023-01-11T22:43:34.219Z,100.00
2023-01-11T22:46:07.637Z,100.00
2023-01-11T22:48:36.850Z,100.00
2023-01-11T22:51:21.118Z,100.00
2023-01-11T22:53:58.813Z,100.00
2023-01-11T22:56:29.456Z,100.00
2023-01-11T22:59:03.099Z,100.00
2023-01-11T23:01:44.211Z,100.00
2023-01-11T23:04:17.950Z,100.00
2023-01-11T23:07:05.458Z,100.00
2023-01-11T23:09:36.780Z,100.00
2023-01-11T23:12:25.703Z,100.00
2023-01-11T23:14:55.188Z,100.00
2023-01-11T23:17:24.691Z,100.00
2023-01-11T23:19:55.925Z,100.00
2023-01-11T23:22:34.071Z,100.00
2023-01-11T23:25:11.501Z,100.00
2023-01-11T23:27:43.361Z,100.00
2023-01-11T23:30:13.490Z,100.00
2023-01-11T23:32:55.281Z,100.00
2023-01-11T23:35:26.841Z,100.00
2023-01-11T23:37:56.924Z,100.00
2023-01-11T23:40:32.127Z,100.00
2023-01-11T23:43:00.784Z,100.00
2023-01-11T23:45:30.306Z,100.00
2023-01-11T23:47:59.824Z,100.00
2023-01-11T23:50:28.146Z,100.00
2023-01-11T23:53:09.482Z,100.00
2023-01-11T23:55:41.643Z,100.00
2023-01-11T23:58:13.350Z,100.00
